Time;durP1;ratioP1;P1;durP2;ratioP2;P2;SDS_P1;SDS_P2;PMS_P1;PMS_P2;Temp;Humidity;BMP_temperature;BMP_pressure;BME280_temperature;BME280_humidity;BME280_pressure;Samples;Min_cycle;Max_cycle;Signal;HPM_P1;HPM_P2
2021/07/22 00:01:36;;;;;;;26.45;16.33;;;;;;;20.72;62.53;102165.63;5075138;28;20526;-57
2021/07/22 00:04:04;;;;;;;19.67;14.00;;;;;;;20.71;62.56;102164.00;5075427;28;20545;-57
2021/07/22 00:06:32;;;;;;;26.52;15.43;;;;;;;20.68;62.84;102166.53;5075804;28;20055;-58
2021/07/22 00:09:03;;;;;;;24.90;15.57;;;;;;;20.69;62.81;102160.72;5075479;28;20051;-57
2021/07/22 00:11:31;;;;;;;22.58;13.90;;;;;;;20.73;62.51;102160.91;5075529;28;20499;-58
2021/07/22 00:13:58;;;;;;;22.40;15.40;;;;;;;20.75;62.35;102156.69;5075072;28;20032;-57
2021/07/22 00:16:26;;;;;;;22.55;14.80;;;;;;;20.75;62.52;102165.00;5057078;28;20132;-52
2021/07/22 00:18:54;;;;;;;24.50;15.52;;;;;;;20.77;62.48;102161.94;5075020;28;20051;-57
2021/07/22 00:21:22;;;;;;;18.95;13.98;;;;;;;20.76;62.43;102166.69;5076154;28;20041;-58
2021/07/22 00:23:50;;;;;;;23.52;15.60;;;;;;;20.76;62.43;102160.31;5075823;28;20041;-58
2021/07/22 00:26:17;;;;;;;21.83;15.55;;;;;;;20.76;62.52;102166.69;5075605;28;20037;-57
2021/07/22 00:28:45;;;;;;;27.30;15.77;;;;;;;20.77;62.65;102168.31;5074787;28;20044;-57
2021/07/22 00:31:12;;;;;;;21.73;14.82;;;;;;;20.78;62.47;102158.88;5075192;28;20041;-58
2021/07/22 00:33:40;;;;;;;21.48;14.63;;;;;;;20.79;62.53;102165.25;5075259;28;20053;-57
2021/07/22 00:36:16;;;;;;;24.95;14.88;;;;;;;20.79;62.61;102162.47;5075530;28;20045;-57
2021/07/22 00:38:44;;;;;;;22.58;15.27;;;;;;;20.79;62.80;102157.75;5075310;28;20052;-57
2021/07/22 00:41:12;;;;;;;24.58;15.30;;;;;;;20.79;62.83;102157.75;5074770;28;20056;-57
2021/07/22 00:43:40;;;;;;;22.40;14.65;;;;;;;20.75;63.22;102153.94;5056868;28;20059;-58
2021/07/22 00:46:11;;;;;;;24.05;16.48;;;;;;;20.70;63.25;102154.03;5054942;28;20032;-57
2021/07/22 00:48:39;;;;;;;24.10;15.90;;;;;;;20.67;63.54;102157.41;5075006;28;20090;-58
2021/07/22 00:51:10;;;;;;;24.27;16.98;;;;;;;20.65;63.86;102159.66;5074546;28;20048;-58
2021/07/22 00:53:41;;;;;;;26.05;16.23;;;;;;;20.61;63.89;102144.75;5074877;28;20102;-57
2021/07/22 00:56:09;;;;;;;25.60;17.02;;;;;;;20.55;64.18;102145.97;5075120;28;20037;-56
2021/07/22 00:58:37;;;;;;;23.95;15.93;;;;;;;20.53;64.64;102146.25;5056584;28;20037;-58
2021/07/22 01:01:05;;;;;;;26.02;17.23;;;;;;;20.53;64.59;102145.44;5056788;28;20048;-57
2021/07/22 01:03:38;;;;;;;26.20;16.75;;;;;;;20.49;64.69;102138.88;5074566;28;20049;-58
2021/07/22 01:06:06;;;;;;;22.00;15.60;;;;;;;20.46;64.92;102145.00;5056520;28;20045;-58
2021/07/22 01:08:34;;;;;;;22.27;16.38;;;;;;;20.45;65.05;102146.16;5074571;28;20041;-56
2021/07/22 01:11:20;;;;;;;23.33;16.35;;;;;;;20.38;65.37;102138.22;5043889;28;20041;-58
2021/07/22 01:13:48;;;;;;;23.70;15.52;;;;;;;20.31;65.90;102135.84;5074019;28;20098;-56
2021/07/22 01:16:17;;;;;;;28.88;18.05;;;;;;;20.28;66.14;102139.22;5056106;28;20040;-54
2021/07/22 01:18:46;;;;;;;23.75;16.75;;;;;;;20.24;66.40;102137.34;5074326;28;20049;-58
2021/07/22 01:21:15;;;;;;;25.17;17.08;;;;;;;20.20;66.48;102142.66;5039280;28;20487;-57
2021/07/22 01:23:43;;;;;;;28.23;18.23;;;;;;;20.15;66.58;102137.19;5056432;28;20076;-58
2021/07/22 01:26:29;;;;;;;25.13;17.92;;;;;;;20.07;67.30;102132.38;5074078;28;20073;-58
2021/07/22 01:29:04;;;;;;;26.30;17.98;;;;;;;20.05;67.24;102140.13;5056127;28;20075;-57
2021/07/22 01:31:33;;;;;;;24.10;17.75;;;;;;;20.00;67.63;102133.53;5056286;28;20048;-56
2021/07/22 01:34:03;;;;;;;26.33;16.98;;;;;;;20.03;67.60;102131.31;5056298;28;20131;-56
2021/07/22 01:36:32;;;;;;;27.52;17.95;;;;;;;20.06;67.43;102127.94;5056224;28;20126;-58
2021/07/22 01:39:03;;;;;;;25.65;17.80;;;;;;;20.05;67.25;102129.88;5056081;28;20037;-57
2021/07/22 01:41:33;;;;;;;26.63;17.98;;;;;;;20.09;67.43;102132.88;5073747;28;20124;-57
2021/07/22 01:44:03;;;;;;;25.38;16.05;;;;;;;20.08;67.41;102132.03;5073621;28;20063;-58
2021/07/22 01:46:33;;;;;;;27.25;17.92;;;;;;;20.04;67.55;102133.78;5073416;28;20056;-58
2021/07/22 01:49:02;;;;;;;25.25;16.85;;;;;;;20.02;67.53;102136.03;5055921;28;20040;-58
2021/07/22 01:51:31;;;;;;;26.95;17.60;;;;;;;19.99;67.87;102129.16;5055912;28;20044;-58
2021/07/22 01:54:04;;;;;;;27.10;16.98;;;;;;;19.98;67.85;102133.03;5073296;28;20063;-56
2021/07/22 01:56:41;;;;;;;24.27;16.48;;;;;;;19.97;67.83;102134.16;5073060;28;20075;-58
2021/07/22 01:59:09;;;;;;;25.02;16.35;;;;;;;19.96;67.55;102131.69;5073597;28;20076;-58
2021/07/22 02:01:38;;;;;;;23.40;16.50;;;;;;;19.92;68.13;102137.00;5055612;28;20491;-58
2021/07/22 02:04:33;;;;;;;25.58;16.33;;;;;;;19.88;68.23;102130.41;5073500;28;20048;-59
2021/07/22 02:07:01;;;;;;;25.40;16.83;;;;;;;19.89;68.08;102132.09;5073351;28;20549;-58
2021/07/22 02:09:33;;;;;;;24.98;17.02;;;;;;;19.94;67.99;102122.84;5055686;28;20392;-58
2021/07/22 02:12:02;;;;;;;22.75;16.92;;;;;;;19.98;67.86;102124.72;5054805;28;20060;-58
2021/07/22 02:14:30;;;;;;;24.50;16.95;;;;;;;20.02;67.85;102124.16;5055512;28;20091;-58
2021/07/22 02:16:59;;;;;;;25.73;17.30;;;;;;;20.02;67.82;102124.16;5073405;28;20055;-58
2021/07/22 02:19:28;;;;;;;23.65;17.00;;;;;;;19.98;67.99;102116.41;5055265;28;20053;-58
2021/07/22 02:21:59;;;;;;;22.88;17.08;;;;;;;19.95;68.25;102125.34;5055029;28;20048;-58
2021/07/22 02:24:27;;;;;;;26.63;17.65;;;;;;;19.95;68.10;102118.97;5054835;28;20534;-57
2021/07/22 02:27:09;;;;;;;27.98;18.58;;;;;;;19.93;68.01;102127.56;5055112;28;20037;-58
2021/07/22 02:29:37;;;;;;;27.42;17.63;;;;;;;19.94;68.14;102117.31;5072929;28;20515;-58
2021/07/22 02:32:05;;;;;;;26.33;17.60;;;;;;;19.90;68.08;102122.66;5072635;28;20545;-56
2021/07/22 02:34:34;;;;;;;26.77;17.95;;;;;;;19.87;68.20;102117.72;5054969;28;20128;-58
2021/07/22 02:37:12;;;;;;;27.17;18.38;;;;;;;19.84;68.43;102123.81;5055177;28;20051;-58
2021/07/22 02:40:00;;;;;;;28.80;18.42;;;;;;;19.79;68.84;102132.22;5071907;28;20136;-57
2021/07/22 02:42:29;;;;;;;26.58;18.02;;;;;;;19.80;68.75;102125.56;5072446;28;20045;-57
2021/07/22 02:45:07;;;;;;;24.30;17.60;;;;;;;19.82;68.67;102133.53;5054778;28;20106;-53
2021/07/22 02:47:38;;;;;;;24.85;17.13;;;;;;;19.81;68.53;102129.16;5065746;28;20052;-55
2021/07/22 02:50:06;;;;;;;31.67;18.50;;;;;;;19.81;68.76;102129.97;5054956;28;20079;-57
2021/07/22 02:52:35;;;;;;;28.33;17.73;;;;;;;19.79;68.83;102126.69;5064576;28;20171;-57
2021/07/22 02:55:04;;;;;;;29.02;18.60;;;;;;;19.80;68.61;102131.09;5054005;28;20037;-57
2021/07/22 02:57:32;;;;;;;27.42;19.02;;;;;;;19.78;68.67;102136.09;5054579;28;20491;-52
2021/07/22 02:59:59;;;;;;;27.60;18.75;;;;;;;19.75;68.75;102131.19;5072551;28;20041;-55
2021/07/22 03:02:28;;;;;;;26.55;18.02;;;;;;;19.74;69.12;102132.28;5072389;28;20047;-57
2021/07/22 03:04:57;;;;;;;27.30;19.13;;;;;;;19.71;69.30;102138.41;5054523;28;20547;-56
2021/07/22 03:07:25;;;;;;;29.73;19.98;;;;;;;19.62;69.73;102142.94;5072365;28;20060;-56
2021/07/22 03:09:54;;;;;;;25.17;17.67;;;;;;;19.52;69.96;102144.69;5071862;28;20041;-57
2021/07/22 03:12:23;;;;;;;27.25;18.13;;;;;;;19.53;70.03;102138.06;5072315;28;20044;-56
2021/07/22 03:14:55;;;;;;;29.05;19.48;;;;;;;19.51;70.13;102133.97;5054236;28;20045;-56
2021/07/22 03:17:23;;;;;;;27.23;18.52;;;;;;;19.44;70.34;102136.25;5054165;28;20110;-56
2021/07/22 03:19:53;;;;;;;25.25;18.10;;;;;;;19.35;70.67;102141.63;5054332;28;20048;-56
2021/07/22 03:22:25;;;;;;;25.90;18.25;;;;;;;19.34;70.78;102134.44;5072089;28;20438;-53
2021/07/22 03:25:22;;;;;;;32.05;18.83;;;;;;;19.33;71.04;102130.84;5067359;28;20466;-57
2021/07/22 03:28:08;;;;;;;26.88;19.25;;;;;;;19.34;70.80;102139.97;5041309;28;20050;-57
2021/07/22 03:30:42;;;;;;;29.52;18.80;;;;;;;19.25;71.36;102138.97;5071227;28;20056;-57
2021/07/22 03:33:29;;;;;;;26.60;17.70;;;;;;;19.28;71.11;102135.63;5070979;28;20041;-58
2021/07/22 03:36:16;;;;;;;27.45;17.73;;;;;;;19.33;70.92;102135.56;5055340;28;20147;-57
2021/07/22 03:39:07;;;;;;;29.95;19.30;;;;;;;19.38;70.68;102129.97;5054538;28;20045;-54
2021/07/22 03:41:35;;;;;;;26.73;18.38;;;;;;;19.39;70.65;102134.38;5071148;28;20102;-58
2021/07/22 03:44:26;;;;;;;24.38;17.52;;;;;;;19.41;70.50;102137.69;5004773;28;20057;-55
2021/07/22 03:46:53;;;;;;;29.27;18.25;;;;;;;19.42;70.42;102132.97;4992947;28;20104;-58
2021/07/22 03:49:26;;;;;;;26.85;18.20;;;;;;;19.41;70.31;102134.06;5008847;28;20464;-55
2021/07/22 03:51:57;;;;;;;26.00;17.63;;;;;;;19.38;70.29;102132.72;4992578;28;20042;-57
2021/07/22 03:54:33;;;;;;;26.98;18.85;;;;;;;19.35;70.53;102136.09;4992378;28;20045;-58
2021/07/22 03:57:02;;;;;;;28.85;19.35;;;;;;;19.29;70.87;102128.97;5008991;28;20030;-57
2021/07/22 03:59:30;;;;;;;26.83;18.45;;;;;;;19.21;71.25;102130.44;4992714;28;20432;-58
2021/07/22 04:02:02;;;;;;;26.45;18.75;;;;;;;19.19;71.32;102129.91;4992749;28;20057;-58
2021/07/22 04:04:38;;;;;;;29.00;18.83;;;;;;;19.23;71.30;102135.69;4992495;28;20050;-58
2021/07/22 04:07:08;;;;;;;29.55;19.25;;;;;;;19.26;71.26;102129.56;4992174;28;20133;-57
2021/07/22 04:09:53;;;;;;;;;;;;;;;19.25;70.96;102133.47;5009381;28;20096;-58
2021/07/22 04:12:39;;;;;;;27.17;19.02;;;;;;;19.25;71.03;102125.16;5008949;28;19956;-59
2021/07/22 04:15:30;;;;;;;28.30;18.73;;;;;;;19.19;71.21;102129.91;4992159;28;20054;-58
2021/07/22 04:18:05;;;;;;;27.73;18.60;;;;;;;19.16;71.59;102136.03;5008713;28;20050;-58
2021/07/22 04:20:33;;;;;;;25.70;17.33;;;;;;;19.18;71.39;102127.47;5014804;28;20464;-52
2021/07/22 04:23:21;;;;;;;27.73;18.45;;;;;;;19.15;71.42;102135.22;4973267;28;20089;-58
2021/07/22 04:26:12;;;;;;;27.38;17.75;;;;;;;19.12;71.75;102133.06;4933394;28;1055956;-58
2021/07/22 04:28:59;;;;;;;22.98;17.55;;;;;;;19.09;71.89;102144.66;4970339;28;20066;-58
2021/07/22 04:31:28;;;;;;;30.15;18.30;;;;;;;19.09;71.66;102136.38;4970742;28;20062;-57
2021/07/22 04:34:09;;;;;;;28.08;17.95;;;;;;;19.07;71.82;102138.63;4954116;28;20055;-58
2021/07/22 04:36:46;;;;;;;28.67;18.00;;;;;;;19.10;71.73;102137.22;4966856;28;20051;-57
2021/07/22 04:39:29;;;;;;;25.33;17.27;;;;;;;19.06;72.01;102136.97;4983661;28;20059;-58
2021/07/22 04:42:13;;;;;;;26.85;17.20;;;;;;;18.97;72.43;102138.72;4978387;28;20533;-58
2021/07/22 04:44:50;;;;;;;25.17;16.80;;;;;;;18.95;72.60;102140.94;4954752;28;20126;-58
2021/07/22 04:47:44;;;;;;;25.10;17.65;;;;;;;18.89;72.65;102136.63;4985082;28;20054;-59
2021/07/22 04:50:38;;;;;;;28.02;17.10;;;;;;;18.84;73.08;102140.25;4958788;28;20046;-59
2021/07/22 04:53:20;;;;;;;25.95;17.88;;;;;;;18.77;73.47;102136.19;4957125;28;20047;-55
2021/07/22 04:55:53;;;;;;;26.05;16.83;;;;;;;18.74;73.36;102134.81;4957751;28;20090;-58
2021/07/22 04:58:22;;;;;;;26.70;18.08;;;;;;;18.79;73.41;102136.72;4984473;28;20046;-58
2021/07/22 05:00:53;;;;;;;22.98;16.52;;;;;;;18.84;73.23;102133.91;5008096;28;20049;-58
2021/07/22 05:03:22;;;;;;;25.20;17.45;;;;;;;18.87;73.11;102142.41;5054445;28;20049;-58
2021/07/22 05:05:50;;;;;;;26.73;17.05;;;;;;;18.90;72.99;102143.78;5038649;28;20119;-56
2021/07/22 05:08:32;;;;;;;28.40;17.17;;;;;;;18.90;73.00;102144.59;5054459;28;20567;-54
2021/07/22 05:11:18;;;;;;;36.80;19.15;;;;;;;18.72;73.75;102154.41;5058922;28;20041;-58
2021/07/22 05:14:01;;;;;;;27.20;16.73;;;;;;;18.70;73.90;102156.63;5022261;28;20041;-58
2021/07/22 05:16:47;;;;;;;31.90;17.85;;;;;;;18.68;74.23;102161.63;5036236;28;20448;-57
2021/07/22 05:19:24;;;;;;;34.42;18.48;;;;;;;18.65;74.32;102153.94;5036030;28;20037;-55
2021/07/22 05:22:22;;;;;;;28.75;17.23;;;;;;;18.68;74.23;102161.63;5044984;28;20515;-58
2021/07/22 05:25:22;;;;;;;28.73;17.60;;;;;;;18.71;74.08;102163.81;4972969;28;20093;-58
2021/07/22 05:28:21;;;;;;;28.15;18.23;;;;;;;18.71;74.28;102158.31;4915487;29;20155;-58
2021/07/22 05:31:12;;;;;;;25.48;16.63;;;;;;;18.69;74.35;102159.72;4915441;29;20056;-57
2021/07/22 05:34:01;;;;;;;25.92;16.80;;;;;;;18.73;74.37;102167.09;4915224;29;20040;-56
2021/07/22 05:36:57;;;;;;;26.00;16.05;;;;;;;18.80;74.25;102160.44;4896358;29;20175;-54
2021/07/22 05:39:35;;;;;;;29.67;18.13;;;;;;;18.82;74.07;102156.28;4896620;29;20063;-56
2021/07/22 05:42:04;;;;;;;21.33;14.57;;;;;;;18.89;73.83;102159.53;4896445;29;20056;-54
2021/07/22 05:44:31;;;;;;;26.73;17.30;;;;;;;18.92;73.85;102158.13;4896079;28;20057;-56
2021/07/22 05:46:59;;;;;;;21.30;13.57;;;;;;;18.97;73.63;102160.00;4896247;29;20053;-57
2021/07/22 05:49:27;;;;;;;27.45;15.45;;;;;;;19.02;73.64;102160.75;4894965;29;20524;-57
2021/07/22 05:51:54;;;;;;;27.02;15.63;;;;;;;19.02;73.68;102157.19;4879361;29;20512;-57
2021/07/22 05:54:22;;;;;;;28.60;17.48;;;;;;;19.02;73.92;102163.53;4895417;29;20519;-57
2021/07/22 05:56:49;;;;;;;24.50;15.88;;;;;;;19.00;73.83;102154.75;4895326;29;20056;-57
2021/07/22 05:59:17;;;;;;;23.30;16.08;;;;;;;19.00;73.79;102156.66;4895773;29;20048;-56
2021/07/22 06:01:44;;;;;;;27.30;17.65;;;;;;;19.03;73.98;102151.38;4940815;28;20059;-54
2021/07/22 06:04:12;;;;;;;24.33;16.77;;;;;;;19.03;73.85;102159.66;4969516;28;20050;-54
2021/07/22 06:06:42;;;;;;;25.10;16.83;;;;;;;19.01;74.05;102156.38;4991716;28;20074;-56
2021/07/22 06:09:10;;;;;;;30.73;16.90;;;;;;;19.00;74.23;102168.56;4991518;28;20045;-51
2021/07/22 06:11:38;;;;;;;25.73;16.25;;;;;;;19.04;74.25;102164.06;4991679;28;20050;-52
2021/07/22 06:14:06;;;;;;;27.48;16.30;;;;;;;19.07;74.03;102154.38;5054222;28;20131;-55
2021/07/22 06:16:33;;;;;;;27.15;17.05;;;;;;;19.09;73.92;102169.53;5072478;28;20550;-56
2021/07/22 06:19:01;;;;;;;26.52;17.02;;;;;;;19.12;73.60;102170.88;5072748;28;20048;-54
2021/07/22 06:21:29;;;;;;;24.58;17.27;;;;;;;19.12;73.59;102163.44;5072912;28;20048;-55
2021/07/22 06:23:56;;;;;;;29.63;19.13;;;;;;;19.13;74.00;102159.56;5072750;28;20045;-53
2021/07/22 06:26:24;;;;;;;24.52;16.85;;;;;;;19.12;73.80;102160.69;5072558;28;20063;-53
2021/07/22 06:28:51;;;;;;;30.05;18.48;;;;;;;19.10;73.88;102162.09;5073018;28;20045;-55
2021/07/22 06:31:19;;;;;;;28.92;18.60;;;;;;;19.04;74.01;102166.81;5072513;28;20418;-55
2021/07/22 06:33:46;;;;;;;28.20;17.30;;;;;;;19.06;74.22;102170.13;5072484;28;20399;-54
2021/07/22 06:36:14;;;;;;;24.75;16.75;;;;;;;19.04;74.12;102164.06;5072476;28;20048;-55
2021/07/22 06:38:41;;;;;;;29.63;18.75;;;;;;;19.12;74.30;102166.19;5072756;28;20045;-55
2021/07/22 06:41:11;;;;;;;27.23;18.15;;;;;;;19.11;74.57;102161.78;5072568;28;20051;-55
2021/07/22 06:43:38;;;;;;;25.98;15.80;;;;;;;19.09;74.33;102158.47;5070346;28;20048;-54
2021/07/22 06:46:11;;;;;;;26.88;17.67;;;;;;;19.09;74.23;102155.72;5049892;28;20163;-49
2021/07/22 06:48:39;;;;;;;27.08;17.38;;;;;;;19.05;74.20;102160.19;5071580;28;20048;-54
2021/07/22 06:51:07;;;;;;;26.48;16.25;;;;;;;19.07;74.00;102155.22;5071842;28;20047;-56
2021/07/22 06:53:34;;;;;;;27.17;16.85;;;;;;;19.14;73.51;102154.84;5071853;28;20120;-50
2021/07/22 06:56:03;;;;;;;25.20;15.98;;;;;;;19.13;73.51;102151.25;5071932;28;20479;-53
2021/07/22 06:58:30;;;;;;;25.77;15.48;;;;;;;19.21;73.21;102152.53;5077759;28;20060;-54
2021/07/22 07:00:58;;;;;;;25.10;17.13;;;;;;;19.24;73.46;102162.19;5075188;28;20124;-55
2021/07/22 07:03:25;;;;;;;27.05;17.00;;;;;;;19.21;73.67;102160.03;5069453;28;20043;-52
2021/07/22 07:05:53;;;;;;;26.92;16.95;;;;;;;19.22;73.29;102159.75;5070402;28;20395;-55
2021/07/22 07:08:21;;;;;;;25.20;15.85;;;;;;;19.30;73.11;102158.25;5071596;28;20043;-54
2021/07/22 07:10:48;;;;;;;23.95;16.02;;;;;;;19.35;73.01;102160.97;5071203;28;20403;-51
2021/07/22 07:13:16;;;;;;;24.27;15.93;;;;;;;19.40;72.93;102158.13;5071741;28;20036;-55
2021/07/22 07:15:44;;;;;;;23.50;14.75;;;;;;;19.46;72.78;102156.13;5069649;28;20391;-54
2021/07/22 07:18:12;;;;;;;22.95;12.93;;;;;;;19.51;72.05;102156.91;5071016;28;20513;-55
2021/07/22 07:20:39;;;;;;;23.85;15.32;;;;;;;19.56;72.31;102156.81;5052739;28;20115;-56
2021/07/22 07:23:07;;;;;;;27.05;16.60;;;;;;;19.63;72.57;102163.94;5071581;28;20037;-56
2021/07/22 07:25:34;;;;;;;24.95;16.95;;;;;;;19.63;72.39;102169.47;5071678;28;20408;-52
2021/07/22 07:28:02;;;;;;;27.50;15.75;;;;;;;19.62;71.58;102173.34;5071121;28;20068;-55
2021/07/22 07:30:30;;;;;;;25.92;16.02;;;;;;;19.63;71.69;102161.19;5071024;28;20684;-52
2021/07/22 07:32:58;;;;;;;21.00;13.70;;;;;;;19.65;71.53;102164.44;5071228;28;20068;-54
2021/07/22 07:35:26;;;;;;;22.00;14.90;;;;;;;19.69;71.39;102176.59;5071356;28;20090;-52
2021/07/22 07:37:53;;;;;;;21.80;14.60;;;;;;;19.70;70.91;102178.22;5071452;28;20094;-53
2021/07/22 07:40:21;;;;;;;22.13;14.45;;;;;;;19.74;70.91;102179.28;5071023;28;20045;-54
2021/07/22 07:42:49;;;;;;;23.75;15.07;;;;;;;19.77;70.97;102173.16;5071425;28;20040;-53
2021/07/22 07:45:16;;;;;;;19.67;12.88;;;;;;;19.79;70.87;102176.47;5070030;28;20056;-54
2021/07/22 07:47:45;;;;;;;27.30;14.32;;;;;;;19.84;70.66;102179.16;5071344;28;20051;-54
2021/07/22 07:50:13;;;;;;;24.80;14.23;;;;;;;19.88;70.31;102171.09;5053351;28;20380;-55
2021/07/22 07:52:41;;;;;;;22.38;14.18;;;;;;;19.92;69.09;102170.19;5070941;28;20049;-54
2021/07/22 07:55:09;;;;;;;22.67;13.10;;;;;;;19.99;69.29;102173.41;5053556;28;20040;-53
2021/07/22 07:57:37;;;;;;;22.15;13.60;;;;;;;19.99;69.25;102173.41;5071252;28;20067;-54
2021/07/22 08:00:06;;;;;;;26.80;13.77;;;;;;;20.03;69.56;102178.34;5070739;28;20052;-54
2021/07/22 08:02:39;;;;;;;21.55;13.45;;;;;;;20.04;69.03;102177.25;5071223;28;20136;-52
2021/07/22 08:05:08;;;;;;;23.65;12.93;;;;;;;20.02;68.73;102182.25;5071408;28;20052;-52
2021/07/22 08:07:36;;;;;;;25.60;13.23;;;;;;;19.99;68.25;102175.38;5071135;28;20053;-52
2021/07/22 08:10:04;;;;;;;18.77;11.68;;;;;;;20.05;68.08;102171.38;5071199;28;20064;-50
2021/07/22 08:12:33;;;;;;;24.25;13.90;;;;;;;20.12;68.63;102174.59;5070714;28;20052;-56
2021/07/22 08:15:00;;;;;;;21.00;13.43;;;;;;;20.17;67.98;102173.72;5070871;28;20063;-53
2021/07/22 08:17:28;;;;;;;22.05;11.98;;;;;;;20.21;66.86;102166.47;5071317;28;20429;-53
2021/07/22 08:19:59;;;;;;;25.20;13.40;;;;;;;20.28;67.24;102172.44;5071519;28;20045;-55
2021/07/22 08:22:26;;;;;;;21.95;11.88;;;;;;;20.28;66.96;102169.66;5074448;28;20079;-50
2021/07/22 08:24:54;;;;;;;26.10;14.88;;;;;;;20.26;67.32;102171.09;5075149;28;20036;-56
2021/07/22 08:27:31;;;;;;;22.42;12.68;;;;;;;20.20;66.94;102173.09;5074454;28;20062;-53
2021/07/22 08:29:59;;;;;;;19.42;12.07;;;;;;;20.16;66.47;102169.31;5074630;28;20044;-51
2021/07/22 08:32:27;;;;;;;18.48;11.57;;;;;;;20.11;66.72;102172.97;5074787;28;20110;-51
2021/07/22 08:34:54;;;;;;;17.70;11.23;;;;;;;20.10;66.49;102174.06;5074914;28;20047;-52
2021/07/22 08:37:22;;;;;;;20.55;11.57;;;;;;;20.14;66.78;102179.84;5075032;28;20055;-51
2021/07/22 08:39:51;;;;;;;18.83;11.90;;;;;;;20.20;66.51;102167.56;5074453;28;20048;-53
2021/07/22 08:42:20;;;;;;;23.02;13.73;;;;;;;20.32;66.93;102164.34;5074444;28;20044;-53
2021/07/22 08:44:49;;;;;;;23.90;12.88;;;;;;;20.42;67.06;102167.78;5049129;28;20037;-51
2021/07/22 08:47:17;;;;;;;17.30;11.43;;;;;;;20.50;65.85;102157.13;5057131;28;20041;-51
2021/07/22 08:49:45;;;;;;;19.00;10.98;;;;;;;20.51;65.25;102167.88;5056704;28;20376;-51
2021/07/22 08:52:13;;;;;;;23.80;12.50;;;;;;;20.50;65.38;102168.22;5074427;28;20053;-52
2021/07/22 08:54:41;;;;;;;16.75;10.25;;;;;;;20.54;64.70;102160.91;5074404;28;20048;-52
2021/07/22 08:57:11;;;;;;;16.58;8.20;;;;;;;20.60;64.19;102166.09;5073854;28;20120;-51
2021/07/22 08:59:39;;;;;;;16.67;9.73;;;;;;;20.67;62.90;102157.41;5056844;28;20045;-52
2021/07/22 09:02:07;;;;;;;19.02;10.05;;;;;;;20.70;63.38;102162.34;5056564;28;20044;-54
2021/07/22 09:05:08;;;;;;;17.60;10.57;;;;;;;20.69;62.71;102160.72;5074611;28;20499;-53
2021/07/22 09:07:36;;;;;;;18.80;9.98;;;;;;;20.69;63.49;102166.25;4972720;28;20066;-55
2021/07/22 09:10:06;;;;;;;18.90;10.55;;;;;;;20.68;63.55;102163.78;4972921;28;20054;-56
2021/07/22 09:12:48;;;;;;;17.65;10.27;;;;;;;20.54;62.97;102164.53;4972860;28;20050;-55
2021/07/22 09:15:25;;;;;;;17.50;10.57;;;;;;;20.48;62.93;102162.16;4972854;28;20039;-56
2021/07/22 09:18:21;;;;;;;17.40;9.93;;;;;;;20.34;62.88;102164.84;4973416;28;20437;-56
2021/07/22 09:20:49;;;;;;;15.88;9.63;;;;;;;20.31;61.58;102163.53;4972545;28;20039;-55
2021/07/22 09:23:22;;;;;;;16.58;9.00;;;;;;;20.36;62.47;102168.16;4972956;28;20062;-55
2021/07/22 09:25:51;;;;;;;17.27;10.48;;;;;;;20.50;60.87;102165.44;4972534;28;20059;-55
2021/07/22 09:28:28;;;;;;;16.35;8.75;;;;;;;20.60;60.72;102165.28;4972631;28;20086;-55
2021/07/22 09:31:04;;;;;;;13.95;8.60;;;;;;;20.71;59.96;102160.38;4972623;28;20126;-54
2021/07/22 09:33:41;;;;;;;18.77;8.23;;;;;;;20.81;60.46;102161.03;4972824;28;20059;-55
2021/07/22 09:36:29;;;;;;;14.23;9.13;;;;;;;20.85;62.43;102162.06;4972515;28;20046;-56
2021/07/22 09:39:19;;;;;;;17.45;9.63;;;;;;;20.78;61.65;102158.88;4972823;28;20049;-55
2021/07/22 09:41:58;;;;;;;17.10;9.02;;;;;;;20.73;62.18;102171.97;4960335;28;20074;-52
2021/07/22 09:44:32;;;;;;;21.48;10.50;;;;;;;20.64;61.37;102167.16;5072170;28;20048;-53
2021/07/22 09:47:00;;;;;;;15.93;9.23;;;;;;;20.60;61.27;102168.88;5073359;28;20383;-52
2021/07/22 09:49:46;;;;;;;18.42;9.70;;;;;;;20.60;61.29;102165.28;5073626;28;20040;-55
2021/07/22 09:52:17;;;;;;;13.38;8.30;;;;;;;20.70;60.71;102162.34;5073423;28;20047;-56
2021/07/22 09:54:45;;;;;;;13.80;8.50;;;;;;;20.79;59.76;102160.50;5073420;28;20124;-52
2021/07/22 09:57:18;;;;;;;13.23;8.23;;;;;;;20.88;59.57;102151.50;5073125;28;20063;-57
2021/07/22 09:59:48;;;;;;;14.18;8.05;;;;;;;20.96;59.29;102159.94;5073335;28;20051;-53
2021/07/22 10:02:24;;;;;;;19.15;8.32;;;;;;;21.03;58.17;102160.34;5073075;28;20048;-54
2021/07/22 10:04:54;;;;;;;13.07;8.52;;;;;;;21.09;58.92;102161.06;5073152;28;20053;-54
2021/07/22 10:07:22;;;;;;;19.02;9.32;;;;;;;21.12;58.70;102154.06;5072978;28;20369;-54
2021/07/22 10:09:51;;;;;;;17.17;7.88;;;;;;;21.15;58.71;102162.63;5054689;28;20055;-56
2021/07/22 10:12:20;;;;;;;13.90;8.75;;;;;;;21.20;58.36;102159.75;5072876;28;20049;-52
2021/07/22 10:14:54;;;;;;;16.50;8.98;;;;;;;21.22;58.48;102151.13;5072642;28;20044;-55
2021/07/22 10:17:33;;;;;;;16.38;8.73;;;;;;;21.22;57.22;102146.41;5072979;28;20048;-51
2021/07/22 10:20:04;;;;;;;15.90;8.07;;;;;;;21.17;57.00;102152.03;5072678;28;20040;-54
2021/07/22 10:22:32;;;;;;;12.48;7.70;;;;;;;21.13;57.26;102156.56;5072435;28;20072;-53
2021/07/22 10:25:06;;;;;;;14.35;7.88;;;;;;;21.09;57.23;102151.94;5072308;28;20045;-54
2021/07/22 10:27:34;;;;;;;14.93;8.02;;;;;;;21.08;57.13;102161.38;5072356;28;20057;-55
2021/07/22 10:30:07;;;;;;;13.50;7.57;;;;;;;21.10;57.94;102159.94;5055306;28;20040;-54
2021/07/22 10:32:35;;;;;;;12.98;7.75;;;;;;;21.13;57.75;102151.00;5055405;28;20044;-55
2021/07/22 10:35:04;;;;;;;11.93;7.15;;;;;;;21.21;57.88;102143.91;5072146;28;20372;-52
2021/07/22 10:37:31;;;;;;;12.98;8.30;;;;;;;21.23;57.80;102149.97;5072283;28;20048;-56
2021/07/22 10:40:09;;;;;;;14.05;7.75;;;;;;;21.30;58.29;102146.81;5072517;28;20486;-55
2021/07/22 10:42:48;;;;;;;11.07;6.95;;;;;;;21.39;58.01;102139.41;5072319;28;20455;-56
2021/07/22 10:45:21;;;;;;;12.27;7.75;;;;;;;21.47;56.84;102136.75;5071689;28;20036;-51
2021/07/22 10:48:03;;;;;;;13.82;7.55;;;;;;;21.47;56.52;102142.28;5072372;28;20051;-57
2021/07/22 10:50:43;;;;;;;11.93;7.47;;;;;;;21.34;56.87;102132.03;5072253;28;20032;-53
2021/07/22 10:53:11;;;;;;;12.73;7.43;;;;;;;21.30;57.13;102139.31;5072029;28;20483;-50
2021/07/22 10:55:45;;;;;;;13.02;7.75;;;;;;;21.28;56.32;102127.69;5058432;28;20068;-56
2021/07/22 10:58:31;;;;;;;13.68;8.82;;;;;;;21.26;56.70;102130.78;5072356;28;20037;-53
2021/07/22 11:01:07;;;;;;;12.95;8.18;;;;;;;21.28;56.53;102131.28;5060497;28;20106;-53
2021/07/22 11:03:38;;;;;;;13.35;7.78;;;;;;;21.28;55.88;102131.28;5072077;28;20144;-53
2021/07/22 11:06:10;;;;;;;11.43;7.25;;;;;;;21.34;56.40;102125.66;5071778;28;20102;-55
2021/07/22 11:08:39;;;;;;;15.77;7.43;;;;;;;21.37;56.94;102123.06;4719361;28;10000537;-55
2021/07/22 11:11:08;;;;;;;13.65;7.45;;;;;;;21.39;56.27;102128.31;5069868;28;20149;-52
2021/07/22 11:13:36;;;;;;;19.33;7.55;;;;;;;21.35;55.54;102127.28;5069894;28;20048;-50
2021/07/22 11:16:08;;;;;;;25.40;8.50;;;;;;;21.33;56.32;102124.00;5056057;28;20082;-55
2021/07/22 11:18:44;;;;;;;17.88;8.20;;;;;;;21.33;56.31;102124.81;5070214;28;20076;-56
2021/07/22 11:21:13;;;;;;;22.70;8.68;;;;;;;21.30;55.79;102127.41;5068710;28;20037;-55
2021/07/22 11:23:40;;;;;;;12.80;7.57;;;;;;;21.27;55.66;102126.06;5056512;28;20063;-55
2021/07/22 11:26:08;;;;;;;81.05;13.27;;;;;;;21.31;56.17;102134.56;5068504;28;20559;-54
2021/07/22 11:28:36;;;;;;;64.25;14.77;;;;;;;21.37;54.91;102125.84;5069727;28;20563;-56
2021/07/22 11:31:08;;;;;;;37.92;11.43;;;;;;;21.38;54.47;102126.66;5069514;28;20708;-54
2021/07/22 11:33:39;;;;;;;36.80;10.00;;;;;;;21.44;54.78;102117.97;5069601;28;20048;-55
2021/07/22 11:36:12;;;;;;;14.25;7.57;;;;;;;21.57;54.64;102124.59;5069201;28;20072;-54